sensor_id;sensor_type;location;lat;lon;timestamp;pressure;altitude;pressure_sealevel;temperature;humidity
42761;BME280;31672;47.638;19.026;2023-10-19T00:00:55;99691.63;;;7.24;82.12
42761;BME280;31672;47.638;19.026;2023-10-19T00:05:59;99691.16;;;7.29;81.76
42761;BME280;31672;47.638;19.026;2023-10-19T00:11:03;99679.97;;;7.35;81.38
42761;BME280;31672;47.638;19.026;2023-10-19T00:16:25;99664.94;;;7.36;81.14
42761;BME280;31672;47.638;19.026;2023-10-19T00:21:39;99669.91;;;7.39;81.02
42761;BME280;31672;47.638;19.026;2023-10-19T00:26:58;99667.09;;;7.40;81.14
42761;BME280;31672;47.638;19.026;2023-10-19T00:32:08;99669.56;;;7.42;80.86
42761;BME280;31672;47.638;19.026;2023-10-19T00:37:16;99653.72;;;7.42;81.12
42761;BME280;31672;47.638;19.026;2023-10-19T00:42:23;99642.84;;;7.45;80.85
42761;BME280;31672;47.638;19.026;2023-10-19T00:47:29;99645.81;;;7.50;81.15
42761;BME280;31672;47.638;19.026;2023-10-19T00:52:43;99644.81;;;7.51;80.66
42761;BME280;31672;47.638;19.026;2023-10-19T00:57:54;99630.78;;;7.50;80.71
42761;BME280;31672;47.638;19.026;2023-10-19T01:02:58;99633.44;;;7.50;80.60
42761;BME280;31672;47.638;19.026;2023-10-19T01:08:09;99613.09;;;7.51;80.20
42761;BME280;31672;47.638;19.026;2023-10-19T01:13:34;99600.53;;;7.53;80.24
42761;BME280;31672;47.638;19.026;2023-10-19T01:18:38;99598.53;;;7.55;80.48
42761;BME280;31672;47.638;19.026;2023-10-19T01:23:46;99602.88;;;7.56;81.04
42761;BME280;31672;47.638;19.026;2023-10-19T01:28:52;99588.97;;;7.54;81.21
42761;BME280;31672;47.638;19.026;2023-10-19T01:34:04;99573.09;;;7.54;81.46
42761;BME280;31672;47.638;19.026;2023-10-19T01:39:09;99567.50;;;7.57;81.47
42761;BME280;31672;47.638;19.026;2023-10-19T01:44:14;99579.72;;;7.58;81.74
42761;BME280;31672;47.638;19.026;2023-10-19T01:49:19;99568.31;;;7.58;82.05
42761;BME280;31672;47.638;19.026;2023-10-19T01:54:32;99564.19;;;7.55;82.61
42761;BME280;31672;47.638;19.026;2023-10-19T01:59:37;99560.69;;;7.55;83.09
42761;BME280;31672;47.638;19.026;2023-10-19T02:04:41;99557.91;;;7.56;83.66
42761;BME280;31672;47.638;19.026;2023-10-19T02:09:46;99550.13;;;7.55;83.84
42761;BME280;31672;47.638;19.026;2023-10-19T02:14:50;99534.25;;;7.55;83.84
42761;BME280;31672;47.638;19.026;2023-10-19T02:19:53;99528.31;;;7.53;83.86
42761;BME280;31672;47.638;19.026;2023-10-19T02:24:57;99533.63;;;7.53;84.23
42761;BME280;31672;47.638;19.026;2023-10-19T02:30:01;99523.22;;;7.51;84.17
42761;BME280;31672;47.638;19.026;2023-10-19T02:35:06;99523.22;;;7.51;84.34
42761;BME280;31672;47.638;19.026;2023-10-19T02:40:11;99527.00;;;7.48;84.34
42761;BME280;31672;47.638;19.026;2023-10-19T02:45:19;99512.31;;;7.46;84.51
42761;BME280;31672;47.638;19.026;2023-10-19T02:50:23;99503.22;;;7.40;85.21
42761;BME280;31672;47.638;19.026;2023-10-19T02:55:30;99496.59;;;7.36;86.04
42761;BME280;31672;47.638;19.026;2023-10-19T03:00:37;99497.75;;;7.34;86.74
42761;BME280;31672;47.638;19.026;2023-10-19T03:05:43;99497.41;;;7.29;87.49
42761;BME280;31672;47.638;19.026;2023-10-19T03:10:46;99483.22;;;7.21;88.13
42761;BME280;31672;47.638;19.026;2023-10-19T03:15:50;99486.16;;;7.10;89.96
42761;BME280;31672;47.638;19.026;2023-10-19T03:20:56;99457.41;;;6.99;91.81
42761;BME280;31672;47.638;19.026;2023-10-19T03:26:01;99442.22;;;6.93;92.22
42761;BME280;31672;47.638;19.026;2023-10-19T03:31:23;99435.06;;;6.77;94.24
42761;BME280;31672;47.638;19.026;2023-10-19T03:36:30;99440.88;;;6.73;95.36
42761;BME280;31672;47.638;19.026;2023-10-19T03:41:36;99431.78;;;6.67;95.91
42761;BME280;31672;47.638;19.026;2023-10-19T03:46:40;99433.78;;;6.73;96.67
42761;BME280;31672;47.638;19.026;2023-10-19T03:51:56;99430.78;;;6.76;96.84
42761;BME280;31672;47.638;19.026;2023-10-19T03:57:15;99425.50;;;6.76;97.33
42761;BME280;31672;47.638;19.026;2023-10-19T04:02:27;99418.41;;;6.77;97.95
42761;BME280;31672;47.638;19.026;2023-10-19T04:07:33;99418.41;;;6.77;98.08
42761;BME280;31672;47.638;19.026;2023-10-19T04:12:40;99418.75;;;6.74;98.32
42761;BME280;31672;47.638;19.026;2023-10-19T04:17:48;99394.47;;;6.70;99.18
42761;BME280;31672;47.638;19.026;2023-10-19T04:22:52;99392.00;;;6.68;99.56
42761;BME280;31672;47.638;19.026;2023-10-19T04:28:02;99385.91;;;6.68;100.00
42761;BME280;31672;47.638;19.026;2023-10-19T04:33:06;99377.31;;;6.66;100.00
42761;BME280;31672;47.638;19.026;2023-10-19T04:38:12;99373.66;;;6.59;100.00
42761;BME280;31672;47.638;19.026;2023-10-19T04:43:17;99382.75;;;6.56;100.00
42761;BME280;31672;47.638;19.026;2023-10-19T04:48:21;99376.81;;;6.54;100.00
42761;BME280;31672;47.638;19.026;2023-10-19T04:53:24;99372.19;;;6.48;100.00
42761;BME280;31672;47.638;19.026;2023-10-19T04:58:28;99365.88;;;6.41;100.00
42761;BME280;31672;47.638;19.026;2023-10-19T05:03:33;99359.59;;;6.34;100.00
42761;BME280;31672;47.638;19.026;2023-10-19T05:08:39;99361.75;;;6.30;100.00
42761;BME280;31672;47.638;19.026;2023-10-19T05:13:43;99349.03;;;6.26;100.00
42761;BME280;31672;47.638;19.026;2023-10-19T05:18:46;99364.84;;;6.26;100.00
42761;BME280;31672;47.638;19.026;2023-10-19T05:23:50;99365.50;;;6.28;100.00
42761;BME280;31672;47.638;19.026;2023-10-19T05:28:54;99374.94;;;6.30;100.00
42761;BME280;31672;47.638;19.026;2023-10-19T05:33:58;99365.69;;;6.34;100.00
42761;BME280;31672;47.638;19.026;2023-10-19T05:39:02;99361.41;;;6.33;100.00
42761;BME280;31672;47.638;19.026;2023-10-19T05:44:08;99361.56;;;6.32;100.00
42761;BME280;31672;47.638;19.026;2023-10-19T05:49:12;99362.22;;;6.34;100.00
42761;BME280;31672;47.638;19.026;2023-10-19T05:54:16;99353.00;;;6.30;100.00
42761;BME280;31672;47.638;19.026;2023-10-19T05:59:21;99362.22;;;6.34;100.00
42761;BME280;31672;47.638;19.026;2023-10-19T06:04:24;99346.91;;;6.37;100.00
42761;BME280;31672;47.638;19.026;2023-10-19T06:09:28;99352.19;;;6.37;100.00
42761;BME280;31672;47.638;19.026;2023-10-19T06:14:35;99345.41;;;6.35;100.00
42761;BME280;31672;47.638;19.026;2023-10-19T06:19:38;99341.63;;;6.37;100.00
42761;BME280;31672;47.638;19.026;2023-10-19T06:24:42;99341.63;;;6.46;100.00
42761;BME280;31672;47.638;19.026;2023-10-19T06:29:47;99333.41;;;6.49;100.00
42761;BME280;31672;47.638;19.026;2023-10-19T06:34:52;99337.88;;;6.48;100.00
42761;BME280;31672;47.638;19.026;2023-10-19T06:39:56;99339.50;;;6.49;100.00
42761;BME280;31672;47.638;19.026;2023-10-19T06:44:59;99341.66;;;6.54;100.00
42761;BME280;31672;47.638;19.026;2023-10-19T06:50:07;99336.06;;;6.57;100.00
42761;BME280;31672;47.638;19.026;2023-10-19T06:55:14;99334.88;;;6.59;100.00
42761;BME280;31672;47.638;19.026;2023-10-19T07:00:23;99326.00;;;6.60;100.00
42761;BME280;31672;47.638;19.026;2023-10-19T07:05:30;99321.38;;;6.62;100.00
42761;BME280;31672;47.638;19.026;2023-10-19T07:10:34;99309.81;;;6.63;100.00
42761;BME280;31672;47.638;19.026;2023-10-19T07:15:38;99310.81;;;6.62;100.00
42761;BME280;31672;47.638;19.026;2023-10-19T07:20:44;99306.19;;;6.64;100.00
42761;BME280;31672;47.638;19.026;2023-10-19T07:25:53;99289.03;;;6.68;100.00
42761;BME280;31672;47.638;19.026;2023-10-19T07:31:04;99304.69;;;6.70;100.00
42761;BME280;31672;47.638;19.026;2023-10-19T07:36:13;99288.88;;;6.70;100.00
42761;BME280;31672;47.638;19.026;2023-10-19T07:41:18;99286.06;;;6.71;100.00
42761;BME280;31672;47.638;19.026;2023-10-19T07:46:21;99275.69;;;6.78;100.00
42761;BME280;31672;47.638;19.026;2023-10-19T07:51:26;99274.66;;;6.87;100.00
42761;BME280;31672;47.638;19.026;2023-10-19T07:56:29;99252.22;;;6.91;100.00
42761;BME280;31672;47.638;19.026;2023-10-19T08:01:33;99250.88;;;6.95;100.00
42761;BME280;31672;47.638;19.026;2023-10-19T08:06:37;99258.31;;;7.00;100.00
42761;BME280;31672;47.638;19.026;2023-10-19T08:11:40;99238.50;;;7.04;100.00
42761;BME280;31672;47.638;19.026;2023-10-19T08:16:45;99233.84;;;7.06;100.00
42761;BME280;31672;47.638;19.026;2023-10-19T08:21:49;99228.56;;;7.14;100.00
42761;BME280;31672;47.638;19.026;2023-10-19T08:26:53;99223.44;;;7.21;100.00
42761;BME280;31672;47.638;19.026;2023-10-19T08:31:57;99230.81;;;7.25;100.00
42761;BME280;31672;47.638;19.026;2023-10-19T08:37:02;99230.00;;;7.33;100.00
42761;BME280;31672;47.638;19.026;2023-10-19T08:42:07;99222.53;;;7.37;100.00
42761;BME280;31672;47.638;19.026;2023-10-19T08:47:11;99213.09;;;7.42;100.00
42761;BME280;31672;47.638;19.026;2023-10-19T08:52:15;99204.31;;;7.50;100.00
42761;BME280;31672;47.638;19.026;2023-10-19T08:57:21;99200.31;;;7.54;100.00
42761;BME280;31672;47.638;19.026;2023-10-19T09:02:25;99193.06;;;7.56;100.00
42761;BME280;31672;47.638;19.026;2023-10-19T09:07:31;99190.69;;;7.69;100.00
42761;BME280;31672;47.638;19.026;2023-10-19T09:12:34;99192.75;;;7.82;100.00
42761;BME280;31672;47.638;19.026;2023-10-19T09:17:38;99180.13;;;7.92;100.00
42761;BME280;31672;47.638;19.026;2023-10-19T09:22:43;99189.34;;;7.96;100.00
42761;BME280;31672;47.638;19.026;2023-10-19T09:27:48;99194.59;;;8.04;100.00
42761;BME280;31672;47.638;19.026;2023-10-19T09:32:52;99184.75;;;8.13;100.00
42761;BME280;31672;47.638;19.026;2023-10-19T09:37:59;99180.06;;;8.23;100.00
42761;BME280;31672;47.638;19.026;2023-10-19T09:43:05;99173.88;;;8.31;100.00
42761;BME280;31672;47.638;19.026;2023-10-19T09:48:12;99167.88;;;8.37;100.00
42761;BME280;31672;47.638;19.026;2023-10-19T09:53:26;99158.41;;;8.43;100.00
42761;BME280;31672;47.638;19.026;2023-10-19T09:58:57;99154.31;;;8.55;100.00
42761;BME280;31672;47.638;19.026;2023-10-19T10:03:59;99136.44;;;8.57;100.00
42761;BME280;31672;47.638;19.026;2023-10-19T10:09:04;99131.69;;;8.67;100.00
42761;BME280;31672;47.638;19.026;2023-10-19T10:14:25;99124.56;;;8.68;100.00
42761;BME280;31672;47.638;19.026;2023-10-19T10:19:31;99118.84;;;8.64;100.00
42761;BME280;31672;47.638;19.026;2023-10-19T10:24:35;99115.47;;;8.70;100.00
42761;BME280;31672;47.638;19.026;2023-10-19T10:29:59;99104.13;;;8.76;100.00
42761;BME280;31672;47.638;19.026;2023-10-19T10:35:04;99081.94;;;8.77;100.00
42761;BME280;31672;47.638;19.026;2023-10-19T10:40:10;99071.34;;;8.77;100.00
42761;BME280;31672;47.638;19.026;2023-10-19T10:45:21;99065.50;;;8.82;100.00
42761;BME280;31672;47.638;19.026;2023-10-19T10:50:25;99061.28;;;8.88;100.00
42761;BME280;31672;47.638;19.026;2023-10-19T10:55:29;99058.63;;;8.88;100.00
42761;BME280;31672;47.638;19.026;2023-10-19T11:00:32;99044.19;;;8.90;100.00
42761;BME280;31672;47.638;19.026;2023-10-19T11:05:38;99030.94;;;8.90;100.00
42761;BME280;31672;47.638;19.026;2023-10-19T11:10:44;99040.34;;;8.93;100.00
42761;BME280;31672;47.638;19.026;2023-10-19T11:15:55;99033.31;;;9.00;100.00
42761;BME280;31672;47.638;19.026;2023-10-19T11:21:05;99024.97;;;9.03;100.00
42761;BME280;31672;47.638;19.026;2023-10-19T11:26:13;99011.72;;;9.03;100.00
42761;BME280;31672;47.638;19.026;2023-10-19T11:31:22;99011.59;;;9.11;100.00
42761;BME280;31672;47.638;19.026;2023-10-19T11:36:26;98998.00;;;9.14;100.00
42761;BME280;31672;47.638;19.026;2023-10-19T11:41:30;98993.31;;;9.16;100.00
42761;BME280;31672;47.638;19.026;2023-10-19T11:46:33;98986.00;;;9.18;100.00
42761;BME280;31672;47.638;19.026;2023-10-19T11:51:37;98981.69;;;9.17;100.00
42761;BME280;31672;47.638;19.026;2023-10-19T11:56:41;98978.56;;;9.28;100.00
42761;BME280;31672;47.638;19.026;2023-10-19T12:01:45;98970.75;;;9.42;100.00
42761;BME280;31672;47.638;19.026;2023-10-19T12:06:49;98964.72;;;9.54;100.00
42761;BME280;31672;47.638;19.026;2023-10-19T12:11:52;98950.50;;;9.62;100.00
42761;BME280;31672;47.638;19.026;2023-10-19T12:17:00;98955.72;;;9.77;100.00
42761;BME280;31672;47.638;19.026;2023-10-19T12:22:05;98939.66;;;9.85;100.00
42761;BME280;31672;47.638;19.026;2023-10-19T12:27:12;98922.94;;;9.84;100.00
42761;BME280;31672;47.638;19.026;2023-10-19T12:32:17;98919.63;;;9.82;100.00
42761;BME280;31672;47.638;19.026;2023-10-19T12:37:20;98916.84;;;9.90;100.00
42761;BME280;31672;47.638;19.026;2023-10-19T12:42:24;98918.50;;;9.98;100.00
42761;BME280;31672;47.638;19.026;2023-10-19T12:47:28;98909.97;;;10.03;100.00
42761;BME280;31672;47.638;19.026;2023-10-19T12:52:33;98901.00;;;10.04;100.00
42761;BME280;31672;47.638;19.026;2023-10-19T12:57:41;98896.94;;;10.08;100.00
42761;BME280;31672;47.638;19.026;2023-10-19T13:02:44;98888.78;;;10.09;100.00
42761;BME280;31672;47.638;19.026;2023-10-19T13:07:48;98887.16;;;10.15;100.00
42761;BME280;31672;47.638;19.026;2023-10-19T13:12:53;98881.34;;;10.26;100.00
42761;BME280;31672;47.638;19.026;2023-10-19T13:17:58;98871.13;;;10.30;100.00
42761;BME280;31672;47.638;19.026;2023-10-19T13:23:07;98866.03;;;10.35;100.00
42761;BME280;31672;47.638;19.026;2023-10-19T13:28:16;98860.34;;;10.44;100.00
42761;BME280;31672;47.638;19.026;2023-10-19T13:33:21;98853.59;;;10.49;100.00
42761;BME280;31672;47.638;19.026;2023-10-19T13:38:25;98854.25;;;10.51;100.00
42761;BME280;31672;47.638;19.026;2023-10-19T13:43:29;98850.78;;;10.57;100.00
42761;BME280;31672;47.638;19.026;2023-10-19T13:48:36;98839.97;;;10.65;100.00
42761;BME280;31672;47.638;19.026;2023-10-19T13:53:43;98835.91;;;10.69;100.00
42761;BME280;31672;47.638;19.026;2023-10-19T13:58:51;98836.50;;;10.78;100.00
42761;BME280;31672;47.638;19.026;2023-10-19T14:03:55;98828.16;;;10.74;100.00
42761;BME280;31672;47.638;19.026;2023-10-19T14:09:00;98828.31;;;10.66;100.00
42761;BME280;31672;47.638;19.026;2023-10-19T14:14:05;98818.28;;;10.61;100.00
42761;BME280;31672;47.638;19.026;2023-10-19T14:19:10;98815.03;;;10.66;100.00
42761;BME280;31672;47.638;19.026;2023-10-19T14:24:14;98816.47;;;10.62;100.00
42761;BME280;31672;47.638;19.026;2023-10-19T14:29:18;98808.91;;;10.59;100.00
42761;BME280;31672;47.638;19.026;2023-10-19T14:34:21;98800.34;;;10.63;100.00
42761;BME280;31672;47.638;19.026;2023-10-19T14:39:25;98795.03;;;10.63;100.00
42761;BME280;31672;47.638;19.026;2023-10-19T14:44:29;98790.31;;;10.65;100.00
42761;BME280;31672;47.638;19.026;2023-10-19T14:49:33;98792.38;;;10.70;100.00
42761;BME280;31672;47.638;19.026;2023-10-19T14:54:36;98794.59;;;10.73;100.00
42761;BME280;31672;47.638;19.026;2023-10-19T14:59:40;98782.16;;;10.74;100.00
42761;BME280;31672;47.638;19.026;2023-10-19T15:04:46;98783.97;;;10.73;100.00
42761;BME280;31672;47.638;19.026;2023-10-19T15:09:50;98779.91;;;10.70;100.00
42761;BME280;31672;47.638;19.026;2023-10-19T15:14:55;98772.94;;;10.69;100.00
42761;BME280;31672;47.638;19.026;2023-10-19T15:19:58;98760.69;;;10.68;100.00
42761;BME280;31672;47.638;19.026;2023-10-19T15:25:04;98757.41;;;10.66;100.00
42761;BME280;31672;47.638;19.026;2023-10-19T15:30:11;98757.63;;;10.65;100.00
42761;BME280;31672;47.638;19.026;2023-10-19T15:35:16;98735.56;;;10.64;100.00
42761;BME280;31672;47.638;19.026;2023-10-19T15:40:25;98738.63;;;10.68;100.00
42761;BME280;31672;47.638;19.026;2023-10-19T15:45:29;98728.81;;;10.68;100.00
42761;BME280;31672;47.638;19.026;2023-10-19T15:50:39;98731.25;;;10.70;100.00
42761;BME280;31672;47.638;19.026;2023-10-19T15:55:44;98726.38;;;10.74;100.00
42761;BME280;31672;47.638;19.026;2023-10-19T16:00:48;98731.69;;;10.74;100.00
42761;BME280;31672;47.638;19.026;2023-10-19T16:05:51;98727.19;;;10.74;100.00
42761;BME280;31672;47.638;19.026;2023-10-19T16:10:55;98720.22;;;10.73;100.00
42761;BME280;31672;47.638;19.026;2023-10-19T16:16:03;98722.47;;;10.76;100.00
42761;BME280;31672;47.638;19.026;2023-10-19T16:21:07;98723.50;;;10.75;100.00
42761;BME280;31672;47.638;19.026;2023-10-19T16:26:11;98723.06;;;10.78;100.00
42761;BME280;31672;47.638;19.026;2023-10-19T16:31:17;98722.88;;;10.80;100.00
42761;BME280;31672;47.638;19.026;2023-10-19T16:36:21;98715.91;;;10.79;100.00
42761;BME280;31672;47.638;19.026;2023-10-19T16:41:24;98709.59;;;10.80;100.00
42761;BME280;31672;47.638;19.026;2023-10-19T16:46:28;98704.69;;;10.83;100.00
42761;BME280;31672;47.638;19.026;2023-10-19T16:51:33;98702.22;;;10.82;100.00
42761;BME280;31672;47.638;19.026;2023-10-19T16:56:40;98692.81;;;10.79;100.00
42761;BME280;31672;47.638;19.026;2023-10-19T17:01:52;98697.75;;;10.82;100.00
42761;BME280;31672;47.638;19.026;2023-10-19T17:06:56;98679.94;;;10.83;100.00
42761;BME280;31672;47.638;19.026;2023-10-19T17:11:59;98671.56;;;10.86;100.00
42761;BME280;31672;47.638;19.026;2023-10-19T17:17:04;98668.72;;;10.87;100.00
42761;BME280;31672;47.638;19.026;2023-10-19T17:22:12;98655.63;;;10.92;100.00
42761;BME280;31672;47.638;19.026;2023-10-19T17:27:16;98654.16;;;10.96;100.00
42761;BME280;31672;47.638;19.026;2023-10-19T17:32:19;98653.97;;;10.98;100.00
42761;BME280;31672;47.638;19.026;2023-10-19T17:37:23;98656.41;;;10.99;100.00
42761;BME280;31672;47.638;19.026;2023-10-19T17:42:27;98646.16;;;11.03;100.00
42761;BME280;31672;47.638;19.026;2023-10-19T17:47:33;98640.22;;;11.08;100.00
42761;BME280;31672;47.638;19.026;2023-10-19T17:52:40;98641.66;;;11.10;100.00
42761;BME280;31672;47.638;19.026;2023-10-19T17:57:44;98637.16;;;11.11;100.00
42761;BME280;31672;47.638;19.026;2023-10-19T18:02:51;98625.91;;;11.09;100.00
42761;BME280;31672;47.638;19.026;2023-10-19T18:07:58;98617.34;;;11.07;100.00
42761;BME280;31672;47.638;19.026;2023-10-19T18:13:01;98609.81;;;11.04;100.00
42761;BME280;31672;47.638;19.026;2023-10-19T18:18:08;98593.84;;;11.04;100.00
42761;BME280;31672;47.638;19.026;2023-10-19T18:23:14;98596.50;;;11.04;100.00
42761;BME280;31672;47.638;19.026;2023-10-19T18:28:21;98599.16;;;11.04;100.00
42761;BME280;31672;47.638;19.026;2023-10-19T18:33:26;98584.84;;;11.05;100.00
42761;BME280;31672;47.638;19.026;2023-10-19T18:38:33;98585.66;;;11.05;100.00
42761;BME280;31672;47.638;19.026;2023-10-19T18:43:40;98576.69;;;10.99;100.00
42761;BME280;31672;47.638;19.026;2023-10-19T18:48:44;98578.56;;;10.92;100.00
42761;BME280;31672;47.638;19.026;2023-10-19T18:53:47;98582.66;;;10.82;100.00
42761;BME280;31672;47.638;19.026;2023-10-19T18:58:51;98572.44;;;10.72;100.00
42761;BME280;31672;47.638;19.026;2023-10-19T19:03:57;98554.31;;;10.62;100.00
42761;BME280;31672;47.638;19.026;2023-10-19T19:09:02;98566.38;;;10.52;100.00
42761;BME280;31672;47.638;19.026;2023-10-19T19:14:08;98567.00;;;10.40;100.00
42761;BME280;31672;47.638;19.026;2023-10-19T19:19:12;98558.03;;;10.35;100.00
42761;BME280;31672;47.638;19.026;2023-10-19T19:24:16;98554.56;;;10.28;100.00
42761;BME280;31672;47.638;19.026;2023-10-19T19:29:20;98560.25;;;10.18;100.00
42761;BME280;31672;47.638;19.026;2023-10-19T19:34:26;98546.59;;;10.08;100.00
42761;BME280;31672;47.638;19.026;2023-10-19T19:39:29;98551.06;;;10.01;100.00
42761;BME280;31672;47.638;19.026;2023-10-19T19:44:33;98567.41;;;9.98;100.00
42761;BME280;31672;47.638;19.026;2023-10-19T19:49:37;98554.75;;;9.93;100.00
42761;BME280;31672;47.638;19.026;2023-10-19T19:54:41;98554.53;;;9.88;100.00
42761;BME280;31672;47.638;19.026;2023-10-19T19:59:45;98559.22;;;9.79;100.00
42761;BME280;31672;47.638;19.026;2023-10-19T20:04:53;98565.94;;;9.69;100.00
42761;BME280;31672;47.638;19.026;2023-10-19T20:09:57;98561.88;;;9.66;100.00
42761;BME280;31672;47.638;19.026;2023-10-19T20:15:01;98555.94;;;9.64;100.00
42761;BME280;31672;47.638;19.026;2023-10-19T20:20:06;98553.09;;;9.65;100.00
42761;BME280;31672;47.638;19.026;2023-10-19T20:25:14;98545.97;;;9.66;100.00
42761;BME280;31672;47.638;19.026;2023-10-19T20:30:18;98536.34;;;9.65;100.00
42761;BME280;31672;47.638;19.026;2023-10-19T20:35:23;98550.25;;;9.67;100.00
42761;BME280;31672;47.638;19.026;2023-10-19T20:40:29;98527.41;;;9.66;100.00
42761;BME280;31672;47.638;19.026;2023-10-19T20:45:40;98535.34;;;9.66;100.00
42761;BME280;31672;47.638;19.026;2023-10-19T20:50:44;98525.13;;;9.63;100.00
42761;BME280;31672;47.638;19.026;2023-10-19T20:55:48;98507.38;;;9.57;100.00
42761;BME280;31672;47.638;19.026;2023-10-19T21:00:52;98509.00;;;9.58;100.00
42761;BME280;31672;47.638;19.026;2023-10-19T21:05:55;98494.72;;;9.59;100.00
42761;BME280;31672;47.638;19.026;2023-10-19T21:10:59;98485.78;;;9.60;100.00
42761;BME280;31672;47.638;19.026;2023-10-19T21:16:07;98481.69;;;9.64;100.00
42761;BME280;31672;47.638;19.026;2023-10-19T21:21:13;98473.13;;;9.62;100.00
42761;BME280;31672;47.638;19.026;2023-10-19T21:26:17;98472.91;;;9.63;100.00
42761;BME280;31672;47.638;19.026;2023-10-19T21:31:21;98469.66;;;9.68;100.00
42761;BME280;31672;47.638;19.026;2023-10-19T21:36:25;98453.13;;;9.73;100.00
42761;BME280;31672;47.638;19.026;2023-10-19T21:41:29;98462.09;;;9.78;100.00
42761;BME280;31672;47.638;19.026;2023-10-19T21:46:33;98462.09;;;9.85;100.00
42761;BME280;31672;47.638;19.026;2023-10-19T21:51:37;98445.75;;;9.88;100.00
42761;BME280;31672;47.638;19.026;2023-10-19T21:56:40;98433.13;;;9.90;100.00
42761;BME280;31672;47.638;19.026;2023-10-19T22:01:45;98414.13;;;9.93;100.00
42761;BME280;31672;47.638;19.026;2023-10-19T22:06:50;98420.44;;;9.92;100.00
42761;BME280;31672;47.638;19.026;2023-10-19T22:11:54;98424.50;;;9.95;100.00
42761;BME280;31672;47.638;19.026;2023-10-19T22:16:57;98403.94;;;9.90;100.00
42761;BME280;31672;47.638;19.026;2023-10-19T22:22:01;98394.13;;;9.90;100.00
42761;BME280;31672;47.638;19.026;2023-10-19T22:27:07;98398.63;;;9.90;100.00
42761;BME280;31672;47.638;19.026;2023-10-19T22:32:11;98399.03;;;9.87;100.00
42761;BME280;31672;47.638;19.026;2023-10-19T22:37:14;98404.13;;;9.82;100.00
42761;BME280;31672;47.638;19.026;2023-10-19T22:42:18;98400.06;;;9.79;100.00
42761;BME280;31672;47.638;19.026;2023-10-19T22:47:22;98395.16;;;9.76;100.00
42761;BME280;31672;47.638;19.026;2023-10-19T22:52:26;98401.50;;;9.75;100.00
42761;BME280;31672;47.638;19.026;2023-10-19T22:57:32;98389.03;;;9.76;100.00
42761;BME280;31672;47.638;19.026;2023-10-19T23:02:36;98377.63;;;9.75;100.00
42761;BME280;31672;47.638;19.026;2023-10-19T23:07:40;98380.06;;;9.77;100.00
42761;BME280;31672;47.638;19.026;2023-10-19T23:12:45;98378.22;;;9.77;100.00
42761;BME280;31672;47.638;19.026;2023-10-19T23:17:50;98384.38;;;9.78;100.00
42761;BME280;31672;47.638;19.026;2023-10-19T23:22:56;98383.34;;;9.79;100.00
42761;BME280;31672;47.638;19.026;2023-10-19T23:28:02;98379.66;;;9.80;100.00
42761;BME280;31672;47.638;19.026;2023-10-19T23:33:08;98353.13;;;9.80;100.00
42761;BME280;31672;47.638;19.026;2023-10-19T23:38:12;98363.97;;;9.78;100.00
42761;BME280;31672;47.638;19.026;2023-10-19T23:43:16;98361.31;;;9.78;100.00
42761;BME280;31672;47.638;19.026;2023-10-19T23:48:19;98350.69;;;9.78;100.00
42761;BME280;31672;47.638;19.026;2023-10-19T23:53:24;98334.38;;;9.75;100.00
42761;BME280;31672;47.638;19.026;2023-10-19T23:58:27;98354.78;;;9.68;100.00
